Time;durP1;ratioP1;P1;durP2;ratioP2;P2;SDS_P1;SDS_P2;PMS_P1;PMS_P2;Temp;Humidity;BMP_temperature;BMP_pressure;BME280_temperature;BME280_humidity;BME280_pressure;Samples;Min_cycle;Max_cycle;Signal;HPM_P1;HPM_P2
2022/01/08 00:07:23;;;;;;;5.72;4.30;;;3.90;99.90;;;;;;4959284;23;20740;-85
2022/01/08 00:09:51;;;;;;;5.20;4.38;;;5.50;99.90;;;;;;4984106;28;20202;-85
2022/01/08 00:12:17;;;;;;;5.35;4.95;;;3.70;99.90;;;;;;4977365;28;20280;-86
2022/01/08 00:14:45;;;;;;;5.30;4.97;;;3.90;99.90;;;;;;4963552;28;20341;-86
2022/01/08 00:17:11;;;;;;;5.15;4.75;;;;;;;;;;4957861;28;20246;-86
2022/01/08 00:19:37;;;;;;;5.55;5.03;;;3.60;99.90;;;;;;4969909;28;20189;-85
2022/01/08 00:22:08;;;;;;;5.90;5.40;;;3.90;99.90;;;;;;4982217;28;20673;-86
2022/01/08 00:24:52;;;;;;;6.10;5.70;;;4.00;99.90;;;;;;4970649;28;20239;-87
2022/01/08 00:27:49;;;;;;;7.70;5.25;;;3.90;99.90;;;;;;4965328;28;20288;-88
2022/01/08 00:30:27;;;;;;;6.65;5.90;;;3.90;99.90;;;;;;4953783;28;20201;-86
2022/01/08 00:32:53;;;;;;;6.03;5.45;;;;;;;;;;4962705;28;20198;-86
2022/01/08 00:35:31;;;;;;;;;;;;;;;;;;;;;
2022/01/08 00:38:00;;;;;;;4.90;4.50;;;4.20;99.90;;;;;;4997949;28;20188;-87
2022/01/08 00:40:28;;;;;;;5.38;4.85;;;4.30;99.90;;;;;;4966918;28;20503;-86
2022/01/08 00:42:57;;;;;;;6.15;5.40;;;4.20;99.90;;;;;;4955950;28;20639;-86
2022/01/08 00:45:25;;;;;;;6.93;6.28;;;4.00;99.90;;;;;;4951363;28;20200;-88
2022/01/08 00:47:51;;;;;;;5.78;5.28;;;3.90;99.90;;;;;;4966997;28;20192;-87
2022/01/08 00:50:17;;;;;;;5.72;5.32;;;3.70;99.90;;;;;;4963932;28;20198;-85
2022/01/08 00:53:21;;;;;;;7.40;6.17;;;3.60;99.90;;;;;;4967550;28;20257;-86
2022/01/08 00:55:50;;;;;;;6.38;5.80;;;4.40;99.90;;;;;;4957113;28;20240;-86
2022/01/08 00:58:19;;;;;;;6.28;5.80;;;3.20;99.90;;;;;;4981842;28;20648;-86
2022/01/08 01:00:45;;;;;;;6.38;5.65;;;3.50;99.90;;;;;;4968239;28;20241;-86
2022/01/08 01:03:11;;;;;;;8.57;7.13;;;;;;;;;;4979009;28;20491;-85
2022/01/08 01:05:37;;;;;;;8.38;7.05;;;;;;;;;;4963925;28;20440;-85
2022/01/08 01:08:03;;;;;;;10.10;8.15;;;3.40;99.90;;;;;;4979955;28;20304;-85
2022/01/08 01:10:29;;;;;;;9.57;8.87;;;;;;;;;;4973747;28;21066;-86
2022/01/08 01:12:55;;;;;;;10.40;8.73;;;3.20;99.90;;;;;;4980729;28;20756;-86
2022/01/08 01:15:21;;;;;;;8.90;8.00;;;;;;;;;;4965873;28;20221;-87
2022/01/08 01:17:58;;;;;;;9.50;8.60;;;3.20;99.90;;;;;;4975363;28;21061;-87
2022/01/08 01:20:24;;;;;;;11.13;8.07;;;;;;;;;;4949100;28;20196;-87
2022/01/08 01:23:31;;;;;;;;;;;;;;;;;;;;;
2022/01/08 01:26:04;;;;;;;12.85;8.93;;;2.80;99.90;;;;;;4956861;28;20194;-86
2022/01/08 01:29:22;;;;;;;12.68;10.55;;;2.80;99.90;;;;;;4975810;28;20205;-85
2022/01/08 01:49:17;;;;;;;12.60;10.60;;;2.50;99.90;;;;;;4968319;28;20221;-86
2022/01/08 01:51:43;;;;;;;16.43;11.53;;;1.70;99.90;;;;;;4958468;28;20214;-85
2022/01/08 01:54:09;;;;;;;19.10;11.55;;;2.30;99.90;;;;;;4968252;28;20182;-86
2022/01/08 01:56:50;;;;;;;15.10;12.15;;;2.40;99.90;;;;;;4945871;28;20237;-86
2022/01/08 01:59:19;;;;;;;13.77;10.30;;;2.30;99.90;;;;;;4968898;28;20178;-86
2022/01/08 02:01:45;;;;;;;14.52;11.30;;;;;;;;;;4939172;28;20201;-86
2022/01/08 02:04:11;;;;;;;15.57;12.73;;;;;;;;;;4958371;28;20211;-86
2022/01/08 02:07:12;;;;;;;17.50;12.73;;;2.10;99.90;;;;;;4964947;28;20576;-87
2022/01/08 02:09:40;;;;;;;21.17;12.45;;;2.10;99.90;;;;;;4965199;28;20232;-87
2022/01/08 02:12:17;;;;;;;17.70;12.70;;;2.10;99.90;;;;;;4958097;28;20198;-86
2022/01/08 02:14:48;;;;;;;21.00;10.75;;;2.00;99.90;;;;;;4937732;29;20191;-87
2022/01/08 02:17:17;;;;;;;11.23;10.10;;;3.10;99.90;;;;;;4969252;28;20201;-87
2022/01/08 02:19:46;;;;;;;14.98;11.52;;;2.20;99.90;;;;;;4969887;28;20196;-87
2022/01/08 02:22:20;;;;;;;16.33;11.45;;;2.00;99.90;;;;;;4966702;28;20455;-87
2022/01/08 02:25:06;;;;;;;17.52;13.10;;;2.00;99.90;;;;;;4935595;29;20224;-87
2022/01/08 02:27:41;;;;;;;19.13;12.05;;;1.80;99.90;;;;;;4965698;28;20686;-87
2022/01/08 02:30:54;;;;;;;14.15;11.20;;;1.80;99.90;;;;;;4963315;28;20659;-87
2022/01/08 02:33:26;;;;;;;15.55;11.18;;;1.70;99.90;;;;;;4961194;28;20194;-87
2022/01/08 02:35:52;;;;;;;15.13;12.80;;;1.80;99.90;;;;;;4951797;28;20190;-87
2022/01/08 02:38:18;;;;;;;18.60;12.18;;;1.70;99.90;;;;;;4974438;28;20622;-87
2022/01/08 02:40:51;;;;;;;15.07;12.30;;;;;;;;;;4968176;28;20691;-87
2022/01/08 02:43:17;;;;;;;18.90;12.63;;;1.60;99.90;;;;;;4964531;28;20478;-87
2022/01/08 02:45:52;;;;;;;18.00;13.53;;;;;;;;;;4949992;28;20257;-87
2022/01/08 02:48:18;;;;;;;21.73;13.88;;;1.90;99.90;;;;;;4946050;28;20449;-87
2022/01/08 02:50:53;;;;;;;22.40;16.07;;;;;;;;;;4942058;28;20334;-87
2022/01/08 02:53:20;;;;;;;20.02;15.70;;;1.50;99.90;;;;;;4975126;28;20201;-86
2022/01/08 02:55:45;;;;;;;19.48;15.73;;;1.40;99.90;;;;;;4968590;28;20590;-86
2022/01/08 02:58:11;;;;;;;18.63;13.50;;;;;;;;;;4972307;28;20280;-86
2022/01/08 03:00:37;;;;;;;21.13;14.60;;;1.40;99.90;;;;;;4968761;28;20241;-87
2022/01/08 03:03:05;;;;;;;24.73;15.90;;;1.40;99.90;;;;;;4981937;28;20444;-87
2022/01/08 03:05:31;;;;;;;24.10;15.07;;;1.40;99.90;;;;;;4969203;28;20450;-87
2022/01/08 03:07:57;;;;;;;29.30;17.80;;;;;;;;;;4943073;28;20316;-87
2022/01/08 03:10:23;;;;;;;30.23;17.92;;;1.30;99.90;;;;;;4948164;29;20194;-87
2022/01/08 03:12:52;;;;;;;31.60;17.93;;;;;;;;;;4947008;28;20198;-87
2022/01/08 03:15:23;;;;;;;30.73;18.20;;;1.50;99.90;;;;;;4960885;28;20190;-86
2022/01/08 03:17:50;;;;;;;26.77;17.67;;;1.50;99.90;;;;;;4971853;28;20197;-85
2022/01/08 03:20:16;;;;;;;25.33;17.17;;;;;;;;;;4969347;28;20182;-86
2022/01/08 03:22:45;;;;;;;25.48;16.50;;;1.30;99.90;;;;;;4965031;28;20196;-86
2022/01/08 03:25:12;;;;;;;22.33;15.65;;;1.30;99.90;;;;;;4952907;28;20301;-87
2022/01/08 03:27:38;;;;;;;28.00;16.80;;;1.30;99.90;;;;;;4961322;28;20246;-87
2022/01/08 03:30:08;;;;;;;26.48;17.55;;;1.30;99.90;;;;;;4960297;28;20252;-87
2022/01/08 03:32:33;;;;;;;20.13;15.00;;;0.90;99.90;;;;;;4967623;28;20198;-87
2022/01/08 03:35:00;;;;;;;27.30;17.67;;;1.20;99.90;;;;;;4961378;28;20571;-87
2022/01/08 03:40:23;;;;;;;29.00;17.23;;;1.00;99.90;;;;;;4952417;28;20722;-87
2022/01/08 03:42:49;;;;;;;27.37;18.40;;;;;;;;;;4954729;28;20194;-85
2022/01/08 03:45:15;;;;;;;29.45;18.65;;;;;;;;;;4960886;28;20307;-86
2022/01/08 03:47:54;;;;;;;31.73;19.77;;;1.00;99.90;;;;;;4961932;28;20194;-86
2022/01/08 03:50:22;;;;;;;30.25;19.35;;;0.90;99.90;;;;;;4967782;28;20190;-86
2022/01/08 03:52:50;;;;;;;37.85;20.85;;;1.00;99.90;;;;;;4960579;28;20268;-85
2022/01/08 03:55:16;;;;;;;44.13;24.15;;;0.90;99.90;;;;;;4967173;28;20591;-86
2022/01/08 03:57:41;;;;;;;43.33;24.30;;;1.30;99.90;;;;;;4970901;28;20193;-86
2022/01/08 04:00:09;;;;;;;33.57;22.20;;;1.20;99.90;;;;;;4966069;28;20795;-85
2022/01/08 04:02:34;;;;;;;28.70;20.00;;;1.40;99.90;;;;;;4961154;28;20217;-86
2022/01/08 04:05:00;;;;;;;33.87;20.87;;;1.50;99.90;;;;;;4947284;29;20643;-86
2022/01/08 04:07:26;;;;;;;30.70;19.73;;;;;;;;;;4947934;28;20221;-85
2022/01/08 04:09:52;;;;;;;33.95;20.45;;;1.70;99.90;;;;;;4964634;28;20660;-86
2022/01/08 04:12:30;;;;;;;31.83;20.13;;;1.50;99.90;;;;;;4955012;28;20202;-87
2022/01/08 04:17:41;;;;;;;44.60;19.73;;;1.30;99.90;;;;;;4966577;28;20212;-88
2022/01/08 04:20:12;;;;;;;39.10;20.00;;;1.40;99.90;;;;;;4967840;28;20178;-87
2022/01/08 04:22:38;;;;;;;35.60;21.85;;;1.40;99.90;;;;;;4970446;28;20337;-87
2022/01/08 04:25:04;;;;;;;38.90;21.90;;;1.50;99.90;;;;;;4966690;28;20617;-87
2022/01/08 04:27:30;;;;;;;39.20;24.42;;;1.40;99.90;;;;;;4976091;28;20196;-87
2022/01/08 04:29:58;;;;;;;48.33;27.07;;;;;;;;;;4968171;28;20182;-86
2022/01/08 04:32:40;;;;;;;42.65;25.13;;;1.30;99.90;;;;;;4948444;28;20445;-87
2022/01/08 04:35:09;;;;;;;45.22;26.27;;;1.20;99.90;;;;;;4960147;28;20181;-87
2022/01/08 04:37:35;;;;;;;40.78;23.33;;;;;;;;;;4949852;28;20221;-87
2022/01/08 04:40:01;;;;;;;47.10;26.48;;;;;;;;;;4968105;28;20318;-86
2022/01/08 04:42:33;;;;;;;47.33;25.55;;;1.30;99.90;;;;;;4973756;28;20699;-86
2022/01/08 04:44:59;;;;;;;48.03;27.98;;;1.20;99.90;;;;;;4968481;28;20213;-85
2022/01/08 04:47:25;;;;;;;46.40;27.60;;;;;;;;;;4947887;28;20186;-87
2022/01/08 04:49:51;;;;;;;42.10;23.25;;;1.30;99.90;;;;;;4971110;28;20221;-86
2022/01/08 04:52:17;;;;;;;41.10;25.70;;;;;;;;;;4976006;28;20304;-86
2022/01/08 04:54:54;;;;;;;43.25;26.15;;;1.70;99.90;;;;;;4969924;28;20550;-87
2022/01/08 04:57:20;;;;;;;37.15;21.88;;;1.50;99.90;;;;;;5011029;23;20232;-84
2022/01/08 04:59:46;;;;;;;41.37;25.87;;;1.40;99.90;;;;;;4957487;28;20181;-85
2022/01/08 05:02:11;;;;;;;43.30;26.43;;;1.60;99.90;;;;;;4971305;28;20198;-84
2022/01/08 05:04:37;;;;;;;50.10;28.53;;;1.70;99.90;;;;;;4962958;28;20694;-84
2022/01/08 05:07:05;;;;;;;44.08;25.58;;;3.60;99.90;;;;;;4955012;28;20710;-85
2022/01/08 05:09:31;;;;;;;34.20;20.27;;;1.70;99.90;;;;;;4973700;28;20197;-85
2022/01/08 05:11:57;;;;;;;32.53;22.67;;;1.70;99.90;;;;;;4954099;28;20186;-85
2022/01/08 05:14:23;;;;;;;42.43;23.97;;;1.90;99.90;;;;;;4965196;28;20190;-85
2022/01/08 05:16:56;;;;;;;40.67;23.73;;;1.90;99.90;;;;;;4969377;28;20204;-85
2022/01/08 05:19:31;;;;;;;35.40;23.33;;;1.80;99.90;;;;;;4983315;28;20217;-85
2022/01/08 05:21:58;;;;;;;30.70;23.63;;;;;;;;;;4970003;28;20288;-85
2022/01/08 05:24:24;;;;;;;36.65;21.80;;;1.90;99.90;;;;;;4958980;28;20216;-85
2022/01/08 05:30:22;;;;;;;36.17;22.13;;;2.00;99.90;;;;;;4956322;28;20239;-86
2022/01/08 05:33:23;;;;;;;31.35;20.73;;;2.20;99.90;;;;;;4976510;28;20432;-87
2022/01/08 05:35:49;;;;;;;33.50;20.80;;;3.90;99.90;;;;;;4975272;28;20660;-86
2022/01/08 05:38:17;;;;;;;37.30;21.83;;;2.10;99.90;;;;;;4992170;28;20232;-87
2022/01/08 05:40:43;;;;;;;35.80;22.00;;;;;;;;;;4970004;28;20201;-87
2022/01/08 05:43:33;;;;;;;;;;;;;;;;;;;;;
2022/01/08 05:46:11;;;;;;;37.05;25.63;;;1.70;99.90;;;;;;4990073;28;20189;-87
2022/01/08 05:49:01;;;;;;;38.75;25.73;;;1.40;99.90;;;;;;4975208;28;20272;-87
2022/01/08 05:52:07;;;;;;;35.35;24.25;;;1.50;99.90;;;;;;4970994;28;20177;-88
2022/01/08 05:54:35;;;;;;;31.13;23.10;;;1.10;99.90;;;;;;4912233;28;20231;-86
2022/01/08 05:57:04;;;;;;;43.72;25.95;;;1.40;99.90;;;;;;4973921;28;20197;-87
2022/01/08 05:59:39;;;;;;;42.20;21.83;;;1.30;99.90;;;;;;4969724;28;20260;-87
2022/01/08 06:09:05;;;;;;;37.47;25.67;;;1.30;99.90;;;;;;4955878;28;20200;-86
2022/01/08 06:11:31;;;;;;;39.13;24.38;;;1.30;99.90;;;;;;4968864;28;20556;-86
2022/01/08 06:14:01;;;;;;;45.03;25.57;;;1.20;99.90;;;;;;4994101;28;20204;-87
2022/01/08 06:16:32;;;;;;;44.90;29.90;;;1.20;99.90;;;;;;4974275;28;20198;-87
2022/01/08 06:18:58;;;;;;;52.58;30.30;;;1.10;99.90;;;;;;4987722;28;20174;-86
2022/01/08 06:21:24;;;;;;;44.40;30.13;;;;;;;;;;4971334;28;20185;-86
2022/01/08 06:23:50;;;;;;;51.20;30.42;;;1.10;99.90;;;;;;4989121;28;20816;-87
2022/01/08 06:26:18;;;;;;;38.43;24.93;;;;;;;;;;4969947;28;20244;-87
2022/01/08 06:28:44;;;;;;;40.80;28.20;;;;;;;;;;4973101;28;20228;-86
2022/01/08 06:31:10;;;;;;;47.42;29.77;;;1.70;99.90;;;;;;4988175;28;20197;-87
2022/01/08 06:33:35;;;;;;;44.80;26.20;;;1.10;99.90;;;;;;4989733;28;20639;-87
2022/01/08 06:36:01;;;;;;;33.90;26.30;;;;;;;;;;4970972;28;20240;-86
2022/01/08 06:38:27;;;;;;;35.50;25.00;;;;;;;;;;4972980;28;20174;-86
2022/01/08 06:40:53;;;;;;;46.20;26.67;;;1.50;99.90;;;;;;4972079;28;20482;-86
2022/01/08 06:43:19;;;;;;;35.70;23.03;;;2.00;99.90;;;;;;4988982;28;20177;-85
2022/01/08 06:45:44;;;;;;;32.93;21.93;;;1.10;99.90;;;;;;4969571;28;20263;-85
2022/01/08 06:48:10;;;;;;;34.47;20.03;;;;;;;;;;4970391;28;20188;-86
2022/01/08 06:50:36;;;;;;;30.20;21.60;;;;;;;;;;4986343;28;20252;-86
2022/01/08 06:53:02;;;;;;;30.50;21.38;;;1.60;99.90;;;;;;4971221;28;20408;-86
2022/01/08 06:55:31;;;;;;;37.07;22.57;;;;;;;;;;4969039;28;20207;-86
2022/01/08 06:57:59;;;;;;;33.53;22.95;;;1.70;99.90;;;;;;4988528;28;20500;-86
2022/01/08 07:00:25;;;;;;;34.28;20.80;;;1.50;99.90;;;;;;4968725;28;20455;-86
2022/01/08 07:02:51;;;;;;;26.10;17.67;;;;;;;;;;4972154;28;20181;-86
2022/01/08 07:05:18;;;;;;;25.55;18.65;;;;;;;;;;4988717;28;20567;-86
2022/01/08 07:07:44;;;;;;;27.35;18.42;;;;;;;;;;4988554;28;20654;-85
2022/01/08 07:10:12;;;;;;;28.90;18.63;;;1.80;99.90;;;;;;4987767;28;20646;-87
2022/01/08 07:12:40;;;;;;;28.25;19.45;;;2.00;99.90;;;;;;4970820;28;20193;-87
2022/01/08 07:15:14;;;;;;;32.15;18.70;;;1.90;99.90;;;;;;4975071;28;20726;-87
2022/01/08 07:17:42;;;;;;;25.13;17.90;;;2.00;99.90;;;;;;5002116;28;20280;-86
2022/01/08 07:20:11;;;;;;;28.85;19.52;;;1.90;99.90;;;;;;4974575;28;20729;-88
2022/01/08 07:22:36;;;;;;;25.30;17.52;;;2.00;99.90;;;;;;4981559;28;20201;-87
2022/01/08 07:25:03;;;;;;;28.70;18.17;;;;;;;;;;4991960;28;20357;-88
2022/01/08 07:27:32;;;;;;;26.88;19.20;;;2.00;99.90;;;;;;4976288;28;20263;-86
2022/01/08 07:30:00;;;;;;;28.77;15.95;;;2.10;99.90;;;;;;4961625;28;20602;-86
2022/01/08 07:32:27;;;;;;;28.30;15.63;;;2.10;99.90;;;;;;4988567;28;20236;-86
2022/01/08 07:34:53;;;;;;;24.73;17.50;;;;;;;;;;4976857;28;20189;-86
2022/01/08 07:37:19;;;;;;;25.05;16.58;;;;;;;;;;4304628;28;10000664;-86
2022/01/08 07:39:45;;;;;;;25.98;17.98;;;;;;;;;;4994956;28;20185;-86
2022/01/08 07:42:11;;;;;;;25.93;16.63;;;;;;;;;;4977242;28;20202;-86
2022/01/08 07:44:37;;;;;;;28.90;16.77;;;;;;;;;;4997334;28;20489;-86
2022/01/08 07:47:03;;;;;;;31.92;18.60;;;2.10;99.90;;;;;;4996967;28;20685;-85
2022/01/08 07:49:29;;;;;;;23.33;14.57;;;;;;;;;;4971369;28;20511;-85
2022/01/08 07:51:57;;;;;;;28.10;18.25;;;2.20;99.90;;;;;;4968145;28;20432;-86
2022/01/08 07:54:23;;;;;;;29.17;18.17;;;2.10;99.90;;;;;;4968583;28;20189;-85
2022/01/08 07:56:49;;;;;;;35.70;19.77;;;;;;;;;;4976951;28;20539;-84
2022/01/08 07:59:15;;;;;;;27.63;18.92;;;;;;;;;;4986330;28;20901;-85
2022/01/08 08:01:41;;;;;;;25.23;17.30;;;;;;;;;;4995184;28;20402;-86
2022/01/08 08:04:07;;;;;;;24.75;15.27;;;2.10;99.90;;;;;;4970414;28;20224;-84
2022/01/08 08:06:36;;;;;;;35.53;19.93;;;;;;;;;;4971305;28;20198;-85
2022/01/08 08:09:02;;;;;;;29.40;18.42;;;2.90;99.90;;;;;;4975246;28;20199;-86
2022/01/08 08:11:28;;;;;;;35.60;20.10;;;;;;;;;;4986767;28;20181;-85
2022/01/08 08:13:55;;;;;;;27.77;17.52;;;2.30;99.90;;;;;;4977458;28;20658;-85
2022/01/08 08:16:21;;;;;;;27.90;17.83;;;2.20;99.90;;;;;;4965543;28;20189;-84
2022/01/08 08:18:48;;;;;;;26.90;15.47;;;;;;;;;;4966677;28;20193;-85
2022/01/08 08:21:14;;;;;;;29.17;17.70;;;2.60;99.90;;;;;;4985138;28;20239;-85
2022/01/08 08:23:39;;;;;;;23.77;13.90;;;2.30;99.90;;;;;;4968676;28;20205;-84
2022/01/08 08:26:05;;;;;;;27.87;17.00;;;;;;;;;;4965447;28;20236;-84
2022/01/08 08:28:31;;;;;;;25.42;16.73;;;2.40;99.90;;;;;;4964136;28;20177;-84
2022/01/08 08:30:57;;;;;;;33.07;18.40;;;;;;;;;;4969586;28;20181;-87
2022/01/08 08:33:23;;;;;;;26.88;17.25;;;2.50;99.90;;;;;;4969176;28;20181;-84
2022/01/08 08:35:54;;;;;;;25.80;19.57;;;2.50;99.90;;;;;;4988178;28;20254;-85
2022/01/08 08:38:22;;;;;;;30.25;18.90;;;2.70;99.90;;;;;;4968740;28;20268;-86
2022/01/08 08:40:51;;;;;;;26.38;17.88;;;;;;;;;;4970485;28;20658;-85
2022/01/08 08:43:17;;;;;;;25.98;15.60;;;;;;;;;;4970302;28;20186;-85
2022/01/08 08:45:42;;;;;;;23.70;15.30;;;2.60;99.90;;;;;;4986007;28;20189;-84
2022/01/08 08:48:08;;;;;;;27.17;17.23;;;2.60;99.90;;;;;;4971953;28;20193;-85
2022/01/08 08:50:34;;;;;;;22.80;15.30;;;;;;;;;;4974103;28;20721;-86
2022/01/08 08:53:00;;;;;;;22.40;15.90;;;2.60;99.90;;;;;;4624999;28;10000697;-85
2022/01/08 08:55:25;;;;;;;29.03;16.10;;;2.20;99.90;;;;;;4969951;28;20428;-84
2022/01/08 08:57:51;;;;;;;23.60;16.30;;;2.70;99.90;;;;;;4973686;28;20197;-86
2022/01/08 09:00:17;;;;;;;28.87;17.47;;;2.80;99.90;;;;;;4979040;28;20227;-83
2022/01/08 09:02:43;;;;;;;30.23;17.17;;;2.10;99.90;;;;;;4986423;28;20588;-83
2022/01/08 09:05:09;;;;;;;26.00;14.37;;;3.10;99.90;;;;;;4994262;28;20484;-85
2022/01/08 09:07:35;;;;;;;23.15;16.35;;;3.00;99.90;;;;;;4968497;28;20435;-86
2022/01/08 09:10:04;;;;;;;23.30;15.53;;;2.70;99.90;;;;;;4969350;28;20189;-85
2022/01/08 09:12:30;;;;;;;23.65;15.80;;;;;;;;;;4968087;28;20193;-86
2022/01/08 09:14:56;;;;;;;26.33;15.15;;;2.60;99.90;;;;;;4969760;28;20714;-87
2022/01/08 09:17:29;;;;;;;21.23;14.50;;;;;;;;;;4990862;28;20478;-87
2022/01/08 09:19:55;;;;;;;24.75;14.90;;;;;;;;;;4970736;28;20224;-86
2022/01/08 09:22:21;;;;;;;20.30;13.57;;;3.30;99.90;;;;;;4969123;28;20639;-84
2022/01/08 09:24:49;;;;;;;25.65;15.98;;;3.30;99.90;;;;;;4968150;28;20764;-82
2022/01/08 09:27:15;;;;;;;19.70;13.27;;;3.00;99.90;;;;;;4983372;28;20250;-84
2022/01/08 09:29:41;;;;;;;23.23;13.40;;;6.20;99.90;;;;;;4967758;28;20678;-85
2022/01/08 09:32:08;;;;;;;15.17;12.37;;;3.40;99.90;;;;;;4987958;28;20197;-86
2022/01/08 09:34:36;;;;;;;14.55;10.82;;;3.10;99.90;;;;;;4970645;28;20678;-85
2022/01/08 09:37:05;;;;;;;18.33;13.90;;;3.40;99.90;;;;;;4972642;28;20185;-85
2022/01/08 09:39:32;;;;;;;21.13;13.95;;;3.20;99.90;;;;;;4971634;28;20256;-85
2022/01/08 09:41:57;;;;;;;26.65;13.88;;;3.00;99.90;;;;;;4972052;28;20638;-85
2022/01/08 09:44:23;;;;;;;21.60;15.20;;;3.20;99.90;;;;;;4973536;28;20239;-85
2022/01/08 09:46:49;;;;;;;19.13;13.70;;;3.60;99.90;;;;;;4992700;28;20236;-85
2022/01/08 09:49:15;;;;;;;20.40;13.20;;;3.40;99.90;;;;;;4995965;28;20169;-84
2022/01/08 09:51:40;;;;;;;22.20;14.37;;;5.40;99.90;;;;;;4995034;28;20200;-84
2022/01/08 09:54:06;;;;;;;21.43;10.53;;;2.40;99.90;;;;;;4992489;28;20177;-85
2022/01/08 09:56:32;;;;;;;25.17;14.13;;;3.50;99.90;;;;;;4978856;28;20215;-85
2022/01/08 09:58:59;;;;;;;18.17;13.85;;;3.40;99.90;;;;;;4977667;28;20754;-85
2022/01/08 10:01:33;;;;;;;26.88;15.27;;;5.70;99.90;;;;;;4974364;28;20257;-84
2022/01/08 10:04:01;;;;;;;16.05;9.05;;;3.60;99.90;;;;;;4970489;28;20201;-85
2022/01/08 10:06:33;;;;;;;22.00;13.88;;;3.50;99.90;;;;;;4988903;28;20269;-84
2022/01/08 10:08:59;;;;;;;24.55;13.52;;;4.30;99.90;;;;;;4988555;28;20170;-86
2022/01/08 10:11:26;;;;;;;24.63;15.17;;;3.70;99.90;;;;;;4989690;28;20275;-85
2022/01/08 10:14:06;;;;;;;21.38;12.98;;;3.70;99.90;;;;;;4972888;28;20447;-84
2022/01/08 10:19:20;;;;;;;25.90;12.35;;;4.00;99.90;;;;;;4989102;28;20181;-85
2022/01/08 10:21:49;;;;;;;23.48;14.07;;;4.10;99.90;;;;;;4987179;28;20181;-85
2022/01/08 10:24:28;;;;;;;17.42;12.05;;;3.90;99.90;;;;;;4981548;28;20220;-83
2022/01/08 10:27:03;;;;;;;22.38;13.88;;;3.90;99.90;;;;;;4971059;28;20265;-84
2022/01/08 10:29:29;;;;;;;19.10;12.02;;;3.90;99.90;;;;;;4988482;28;20200;-82
2022/01/08 10:31:55;;;;;;;19.67;12.03;;;4.10;99.90;;;;;;4986793;28;20228;-84
2022/01/08 10:34:27;;;;;;;7.05;6.45;;;4.10;99.90;;;;;;4987493;28;20432;-86
2022/01/08 10:36:55;;;;;;;17.60;12.43;;;3.90;99.90;;;;;;4638894;28;10000627;-84
2022/01/08 10:39:51;;;;;;;18.02;11.25;;;3.40;99.90;;;;;;4968765;28;20178;-83
2022/01/08 10:42:17;;;;;;;16.30;11.50;;;3.90;99.90;;;;;;4969768;28;20279;-83
2022/01/08 10:44:46;;;;;;;18.00;12.57;;;4.00;99.90;;;;;;4968369;28;20217;-85
2022/01/08 10:47:18;;;;;;;17.42;11.25;;;4.20;99.90;;;;;;4987147;28;20188;-86
2022/01/08 10:50:17;;;;;;;18.90;11.77;;;4.20;99.90;;;;;;5003397;28;20168;-86
2022/01/08 10:52:49;;;;;;;29.40;12.98;;;4.30;99.90;;;;;;4997260;28;20416;-86
2022/01/08 10:55:15;;;;;;;12.00;9.23;;;;;;;;;;4989857;28;20169;-85
2022/01/08 10:57:46;;;;;;;19.73;13.18;;;4.30;99.90;;;;;;4970187;28;20196;-86
2022/01/08 11:00:14;;;;;;;12.02;7.45;;;4.60;99.90;;;;;;4981824;28;20215;-83
2022/01/08 11:02:44;;;;;;;9.10;8.20;;;4.90;99.90;;;;;;5006191;28;20208;-84
2022/01/08 11:05:42;;;;;;;13.55;9.55;;;5.40;99.90;;;;;;5003824;28;20213;-86
2022/01/08 11:08:19;;;;;;;13.07;9.85;;;5.70;99.90;;;;;;4977947;28;20619;-88
2022/01/08 11:13:38;;;;;;;11.27;8.00;;;5.40;99.90;;;;;;4987412;28;20268;-92
2022/01/08 11:16:04;;;;;;;21.80;9.80;;;;;;;;;;4970878;28;20251;-91
2022/01/08 11:18:30;;;;;;;10.93;9.00;;;;;;;;;;4987571;28;20222;-92
2022/01/08 11:21:07;;;;;;;14.07;9.88;;;5.20;99.90;;;;;;4988333;28;20249;-91
2022/01/08 11:23:35;;;;;;;11.90;9.30;;;5.50;99.90;;;;;;4971820;28;20241;-91
2022/01/08 11:26:02;;;;;;;13.65;8.90;;;5.20;99.90;;;;;;4988020;28;20177;-88
2022/01/08 11:28:34;;;;;;;12.25;7.72;;;5.10;99.90;;;;;;4953613;28;20186;-86
2022/01/08 11:31:02;;;;;;;10.02;7.60;;;5.20;99.90;;;;;;4956607;28;20198;-88
2022/01/08 11:33:37;;;;;;;5.68;5.10;;;5.30;99.90;;;;;;4975534;28;20189;-90
2022/01/08 11:36:14;;;;;;;10.95;8.23;;;;;;;;;;4974253;28;20178;-89
2022/01/08 11:38:43;;;;;;;12.55;7.45;;;5.20;99.90;;;;;;4978740;28;20177;-87
2022/01/08 11:41:22;;;;;;;12.85;7.32;;;5.40;99.90;;;;;;4963210;28;20256;-92
2022/01/08 11:43:52;;;;;;;9.03;7.90;;;5.60;99.90;;;;;;4956396;28;20527;-94
2022/01/08 11:46:18;;;;;;;7.38;5.82;;;5.20;99.90;;;;;;4962713;28;20451;-93
2022/01/08 11:48:49;;;;;;;10.43;5.50;;;5.90;99.90;;;;;;4952798;28;20250;-90
2022/01/08 11:51:29;;;;;;;5.05;4.57;;;6.00;99.90;;;;;;4990641;28;20264;-93
2022/01/08 11:54:00;;;;;;;4.88;4.40;;;5.80;99.90;;;;;;4973635;28;20268;-94
2022/01/08 11:56:39;;;;;;;5.93;5.30;;;5.80;99.90;;;;;;4976291;28;20170;-93
2022/01/08 11:59:15;;;;;;;7.35;3.70;;;6.30;99.90;;;;;;4963816;28;20220;-92
2022/01/08 12:02:07;;;;;;;4.20;3.90;;;5.50;99.90;;;;;;4958394;28;20185;-93
2022/01/08 12:04:35;;;;;;;4.95;4.50;;;5.30;99.90;;;;;;4967400;28;20216;-91
2022/01/08 12:07:47;;;;;;;4.43;2.70;;;4.70;99.90;;;;;;4997673;28;20254;-92
2022/01/08 12:10:31;;;;;;;4.03;3.40;;;5.30;99.90;;;;;;4998288;28;20177;-93
2022/01/08 12:13:02;;;;;;;4.43;3.60;;;5.40;99.90;;;;;;4962520;28;20649;-93
2022/01/08 12:15:50;;;;;;;6.00;3.97;;;5.30;99.90;;;;;;4972974;28;20205;-94
2022/01/08 12:18:21;;;;;;;4.47;4.13;;;5.80;99.90;;;;;;4957432;28;20192;-89
2022/01/08 12:20:52;;;;;;;4.15;3.40;;;5.80;99.90;;;;;;4964708;28;20197;-92
2022/01/08 12:23:35;;;;;;;2.28;2.28;;;6.80;99.90;;;;;;4969886;28;20284;-93
2022/01/08 12:26:27;;;;;;;1.80;1.70;;;5.90;99.90;;;;;;4968041;28;20197;-93
2022/01/08 12:29:02;;;;;;;3.63;3.45;;;6.00;99.90;;;;;;4962235;28;20216;-92
2022/01/08 12:31:50;;;;;;;6.32;2.75;;;6.20;99.90;;;;;;4648401;28;10000956;-92
2022/01/08 12:34:31;;;;;;;5.18;2.47;;;6.20;99.90;;;;;;4964876;28;20189;-94
2022/01/08 12:36:58;;;;;;;6.35;3.20;;;6.80;99.90;;;;;;4972391;28;20461;-91
2022/01/08 12:39:47;;;;;;;2.65;2.45;;;6.40;99.90;;;;;;4988608;28;20212;-90
2022/01/08 12:42:22;;;;;;;4.20;3.90;;;7.10;99.90;;;;;;4979369;28;20193;-94
2022/01/08 12:45:26;;;;;;;4.60;4.20;;;7.10;99.90;;;;;;4988304;28;20262;-94
2022/01/08 12:48:01;;;;;;;2.25;2.15;;;6.90;99.90;;;;;;4977045;28;20188;-93
2022/01/08 12:50:42;;;;;;;2.97;2.78;;;8.80;99.90;;;;;;4971383;28;20195;-94
2022/01/08 12:53:22;;;;;;;2.55;2.45;;;7.30;99.90;;;;;;4979106;28;20173;-92
2022/01/08 12:55:55;;;;;;;4.10;3.90;;;7.30;99.90;;;;;;4976297;28;20193;-93
2022/01/08 12:58:38;;;;;;;4.43;2.85;;;7.50;99.90;;;;;;4968055;28;20418;-92
2022/01/08 13:01:30;;;;;;;3.40;3.05;;;7.60;99.90;;;;;;4990605;28;20294;-93
2022/01/08 13:03:58;;;;;;;3.22;2.92;;;8.70;99.90;;;;;;4974471;28;20353;-94
2022/01/08 13:06:31;;;;;;;5.93;3.55;;;6.90;99.90;;;;;;4992695;28;20233;-93
2022/01/08 13:09:02;;;;;;;5.88;3.53;;;6.60;99.90;;;;;;4985717;28;20189;-93
2022/01/08 13:12:01;;;;;;;;;;;;;;;;;;;;;
2022/01/08 13:14:30;;;;;;;4.85;3.40;;;6.60;99.90;;;;;;4993762;28;20220;-93
2022/01/08 13:17:01;;;;;;;3.75;3.65;;;5.80;99.90;;;;;;4969583;28;20194;-92
2022/01/08 13:19:34;;;;;;;3.08;2.97;;;5.50;99.90;;;;;;4972369;28;20209;-94
2022/01/08 13:22:02;;;;;;;6.13;2.50;;;5.30;99.90;;;;;;4973466;28;20190;-94
2022/01/08 13:24:28;;;;;;;3.22;3.13;;;;;;;;;;4989375;28;20208;-94
2022/01/08 13:27:15;;;;;;;1.70;1.70;;;5.50;99.90;;;;;;4973785;28;20189;-94
2022/01/08 13:30:36;;;;;;;;;;;;;;;;;;;;;
2022/01/08 13:33:04;;;;;;;1.75;1.73;;;5.00;99.90;;;;;;5024100;23;20322;-83
2022/01/08 13:35:31;;;;;;;1.67;1.67;;;5.00;99.90;;;;;;5010425;28;20195;-84
2022/01/08 13:37:56;;;;;;;4.60;3.28;;;4.90;99.90;;;;;;5000985;28;20231;-84
2022/01/08 13:40:26;;;;;;;4.53;3.20;;;5.00;99.90;;;;;;5001189;28;20290;-83
2022/01/08 13:42:53;;;;;;;4.15;2.80;;;4.90;99.90;;;;;;5015593;28;20230;-84
2022/01/08 13:45:23;;;;;;;4.10;2.92;;;4.90;99.90;;;;;;4997136;28;20290;-84
2022/01/08 13:47:49;;;;;;;4.22;3.35;;;;;;;;;;4993875;28;20216;-84
2022/01/08 13:50:23;;;;;;;3.20;2.10;;;4.80;99.90;;;;;;4989318;28;20266;-85
2022/01/08 13:52:57;;;;;;;3.17;2.95;;;4.80;99.90;;;;;;5000586;28;20262;-82
2022/01/08 13:55:37;;;;;;;2.90;2.78;;;4.70;99.90;;;;;;5008774;28;20322;-85
2022/01/08 13:58:25;;;;;;;3.55;3.17;;;4.80;99.90;;;;;;5000090;28;20720;-85
2022/01/08 14:00:59;;;;;;;3.30;3.05;;;5.20;99.90;;;;;;5007582;28;20189;-83
2022/01/08 14:03:46;;;;;;;4.80;2.70;;;4.80;99.90;;;;;;5005114;28;20269;-85
2022/01/08 14:06:23;;;;;;;2.70;2.28;;;4.60;99.90;;;;;;4985707;28;20188;-82
2022/01/08 14:09:20;;;;;;;3.13;3.00;;;4.60;99.90;;;;;;5008071;28;20196;-82
2022/01/08 14:11:46;;;;;;;4.35;3.40;;;4.20;99.90;;;;;;4993734;28;20176;-83
2022/01/08 14:14:17;;;;;;;5.60;3.42;;;4.10;99.90;;;;;;4997380;28;20351;-84